createdAt,value
2022-10-02T00:02:37.440Z,99671.58
2022-10-02T00:05:12.780Z,99668.87
2022-10-02T00:07:43.257Z,99666.66
2022-10-02T00:10:32.589Z,99664.33
2022-10-02T00:13:12.315Z,99665.34
2022-10-02T00:15:42.451Z,99666.36
2022-10-02T00:18:16.597Z,99666.36
2022-10-02T00:20:56.495Z,99668.90
2022-10-02T00:23:33.683Z,99673.50
2022-10-02T00:26:09.427Z,99674.18
2022-10-02T00:28:52.267Z,99677.42
2022-10-02T00:32:01.870Z,99678.79
2022-10-02T00:35:15.234Z,99677.77
2022-10-02T00:37:54.743Z,99681.16
2022-10-02T00:40:43.950Z,99680.82
2022-10-02T00:43:19.695Z,99679.96
2022-10-02T00:46:08.899Z,99679.95
2022-10-02T00:48:42.363Z,99680.98
2022-10-02T00:51:31.808Z,99686.42
2022-10-02T00:54:09.624Z,99686.23
2022-10-02T00:56:52.628Z,99688.98
2022-10-02T00:59:35.241Z,99687.94
2022-10-02T01:02:12.680Z,99684.87
2022-10-02T01:04:41.451Z,99691.50
2022-10-02T01:07:12.863Z,99691.67
2022-10-02T01:09:42.060Z,99695.77
2022-10-02T01:12:10.740Z,99691.70
2022-10-02T01:14:40.259Z,99697.83
2022-10-02T01:17:23.884Z,99695.77
2022-10-02T01:19:51.851Z,99698.16
2022-10-02T01:22:39.078Z,99700.70
2022-10-02T01:25:07.866Z,99702.06
2022-10-02T01:27:39.307Z,99703.60
2022-10-02T01:30:11.519Z,99708.54
2022-10-02T01:33:00.648Z,99710.73
2022-10-02T01:35:33.703Z,99714.65
2022-10-02T01:38:06.204Z,99713.11
2022-10-02T01:40:36.183Z,99713.77
2022-10-02T01:43:19.029Z,99716.49
2022-10-02T01:45:59.011Z,99716.31
2022-10-02T01:48:39.977Z,99718.67
2022-10-02T01:51:46.487Z,99713.90
2022-10-02T01:54:14.085Z,99717.47
2022-10-02T01:56:49.737Z,99719.34
2022-10-02T01:59:40.741Z,99720.17
2022-10-02T02:02:30.022Z,99724.93
2022-10-02T02:05:06.889Z,99725.27
2022-10-02T02:07:53.211Z,99733.27
2022-10-02T02:10:27.420Z,99736.17
2022-10-02T02:13:05.504Z,99736.02
2022-10-02T02:15:55.057Z,99739.94
2022-10-02T02:18:30.054Z,99743.53
2022-10-02T02:21:05.964Z,99749.81
2022-10-02T02:23:37.208Z,99753.56
2022-10-02T02:26:09.705Z,99754.77
2022-10-02T02:28:40.928Z,99755.94
2022-10-02T02:31:13.249Z,99755.42
2022-10-02T02:33:50.580Z,99760.70
2022-10-02T02:36:23.364Z,99762.23
2022-10-02T02:38:56.680Z,99762.92
2022-10-02T02:41:28.516Z,99759.68
2022-10-02T02:44:02.955Z,99755.76
2022-10-02T02:46:59.581Z,99750.48
2022-10-02T02:49:32.157Z,99756.11
2022-10-02T02:52:03.908Z,99762.42
2022-10-02T02:54:44.679Z,99758.35
2022-10-02T02:57:15.588Z,99755.13
2022-10-02T02:59:46.739Z,99761.95
2022-10-02T03:02:14.691Z,99764.88
2022-10-02T03:04:42.494Z,99766.42
2022-10-02T03:07:15.479Z,99771.90
2022-10-02T03:09:54.295Z,99774.46
2022-10-02T03:12:53.495Z,99777.88
2022-10-02T03:15:28.812Z,99779.58
2022-10-02T03:18:31.071Z,99783.16
2022-10-02T03:21:04.504Z,99783.15
2022-10-02T03:24:06.352Z,99783.31
2022-10-02T03:26:47.748Z,99778.88
2022-10-02T03:29:31.815Z,99783.63
2022-10-02T03:32:00.804Z,99779.00
2022-10-02T03:34:29.264Z,99778.32
2022-10-02T03:36:57.128Z,99780.48
2022-10-02T03:39:26.113Z,99781.34
2022-10-02T03:41:54.673Z,99781.33
2022-10-02T03:44:22.346Z,99787.10
2022-10-02T03:46:50.118Z,99785.21
2022-10-02T03:49:17.755Z,99787.25
2022-10-02T03:51:45.453Z,99791.16
2022-10-02T03:54:17.833Z,99790.31
2022-10-02T03:56:57.258Z,99789.80
2022-10-02T03:59:46.943Z,99791.14
2022-10-02T04:02:40.298Z,99794.23
2022-10-02T04:05:27.928Z,99793.36
2022-10-02T04:08:00.607Z,99794.05
2022-10-02T04:10:31.024Z,99797.28
2022-10-02T04:13:12.078Z,99796.92
2022-10-02T04:16:03.519Z,99798.10
2022-10-02T04:18:51.475Z,99800.83
2022-10-02T04:21:56.148Z,99798.61
2022-10-02T04:24:50.388Z,99803.54
2022-10-02T04:27:31.371Z,99806.09
2022-10-02T04:30:04.134Z,99808.29
2022-10-02T04:32:34.587Z,99808.63
2022-10-02T04:35:12.738Z,99811.66
2022-10-02T04:37:52.299Z,99813.04
2022-10-02T04:40:53.031Z,99816.28
2022-10-02T04:43:57.764Z,99814.25
2022-10-02T04:47:04.648Z,99817.48
2022-10-02T04:49:41.159Z,99820.71
2022-10-02T04:52:45.351Z,99825.48
2022-10-02T04:55:30.175Z,99823.98
2022-10-02T04:58:22.735Z,99822.95
2022-10-02T05:01:01.875Z,99822.61
2022-10-02T05:04:20.886Z,99830.44
2022-10-02T05:07:00.469Z,99833.52
2022-10-02T05:09:34.860Z,99836.39
2022-10-02T05:12:11.460Z,99839.78
2022-10-02T05:14:54.279Z,99840.98
2022-10-02T05:17:40.337Z,99837.73
2022-10-02T05:20:45.557Z,99841.30
2022-10-02T05:23:25.249Z,99842.17
2022-10-02T05:26:14.329Z,99843.86
2022-10-02T05:29:03.844Z,99843.00
2022-10-02T05:31:56.060Z,99843.50
2022-10-02T05:34:38.325Z,99847.25
2022-10-02T05:37:19.717Z,99850.83
2022-10-02T05:40:00.181Z,99855.40
2022-10-02T05:42:39.048Z,99860.52
2022-10-02T05:45:37.248Z,99859.50
2022-10-02T05:48:26.384Z,99860.65
2022-10-02T05:51:02.363Z,99863.36
2022-10-02T05:54:01.829Z,99862.32
2022-10-02T05:56:32.935Z,99864.69
2022-10-02T05:59:33.056Z,99865.65
2022-10-02T06:02:20.529Z,99867.85
2022-10-02T06:04:57.565Z,99869.73
2022-10-02T06:07:28.208Z,99871.75
2022-10-02T06:10:03.649Z,99871.91
2022-10-02T06:12:35.499Z,99877.52
2022-10-02T06:15:10.531Z,99877.02
2022-10-02T06:17:45.773Z,99878.88
2022-10-02T06:20:48.842Z,99883.47
2022-10-02T06:23:24.534Z,99884.17
2022-10-02T06:26:00.064Z,99885.31
2022-10-02T06:28:27.888Z,99887.50
2022-10-02T06:31:05.846Z,99887.88
2022-10-02T06:33:33.606Z,99893.15
2022-10-02T06:36:22.824Z,99894.68
2022-10-02T06:38:53.268Z,99898.23
2022-10-02T06:41:47.463Z,99898.58
2022-10-02T06:44:48.294Z,99898.04
2022-10-02T06:47:37.477Z,99900.56
2022-10-02T06:50:30.533Z,99903.41
2022-10-02T06:53:07.173Z,99907.80
2022-10-02T06:55:45.609Z,99912.02
2022-10-02T06:58:50.785Z,99915.07
2022-10-02T07:01:27.112Z,99919.66
2022-10-02T07:04:33.270Z,99920.34
2022-10-02T07:07:06.278Z,99920.67
2022-10-02T07:10:29.517Z,99926.63
2022-10-02T07:13:34.317Z,99930.67
2022-10-02T07:16:29.272Z,99934.20
2022-10-02T07:19:15.446Z,99933.84
2022-10-02T07:22:01.132Z,99935.14
2022-10-02T07:24:53.469Z,99937.65
2022-10-02T07:27:29.342Z,99934.40
2022-10-02T07:30:05.178Z,99938.09
2022-10-02T07:32:49.985Z,99941.14
2022-10-02T07:35:42.583Z,99939.58
2022-10-02T07:38:10.245Z,99943.38
2022-10-02T07:40:44.254Z,99942.35
2022-10-02T07:43:18.944Z,99948.16
2022-10-02T07:46:17.250Z,99946.28
2022-10-02T07:49:13.181Z,99949.14
2022-10-02T07:51:53.949Z,99950.67
2022-10-02T07:54:43.010Z,99947.92
2022-10-02T07:57:44.580Z,99951.48
2022-10-02T08:00:14.481Z,99950.27
2022-10-02T08:02:48.385Z,99952.67
2022-10-02T08:05:26.929Z,99953.88
2022-10-02T08:07:59.995Z,99951.17
2022-10-02T08:10:35.735Z,99954.38
2022-10-02T08:13:22.243Z,99958.48
2022-10-02T08:15:55.046Z,99959.48
2022-10-02T08:19:07.263Z,99955.55
2022-10-02T08:21:43.015Z,99959.98
2022-10-02T08:24:22.543Z,99962.00
2022-10-02T08:26:57.961Z,99958.52
2022-10-02T08:30:06.536Z,99959.27
2022-10-02T08:32:36.732Z,99958.52
2022-10-02T08:35:19.892Z,99956.95
2022-10-02T08:38:38.911Z,99957.10
2022-10-02T08:41:31.671Z,99954.53
2022-10-02T08:44:21.526Z,99962.83
2022-10-02T08:47:03.219Z,99962.84
2022-10-02T08:49:55.526Z,99958.93
2022-10-02T08:52:41.250Z,99960.27
2022-10-02T08:55:30.671Z,99958.74
2022-10-02T08:58:38.461Z,99968.20
2022-10-02T09:01:23.219Z,99961.43
2022-10-02T09:03:59.867Z,99951.91
2022-10-02T09:07:00.340Z,99952.59
2022-10-02T09:09:43.405Z,99948.81
2022-10-02T09:12:49.269Z,99944.23
2022-10-02T09:15:23.254Z,99944.73
2022-10-02T09:18:20.364Z,99942.85
2022-10-02T09:21:13.988Z,99942.34
2022-10-02T09:24:36.331Z,99942.66
2022-10-02T09:27:42.281Z,99941.00
2022-10-02T09:30:50.952Z,99942.19
2022-10-02T09:33:19.426Z,99942.12
2022-10-02T09:36:24.908Z,99934.29
2022-10-02T09:38:59.041Z,99938.23
2022-10-02T09:42:01.639Z,99937.54
2022-10-02T09:44:43.835Z,99944.13
2022-10-02T09:47:49.613Z,99945.31
2022-10-02T09:50:55.569Z,99943.46
2022-10-02T09:53:54.219Z,99939.16
2022-10-02T09:56:53.619Z,99943.90
2022-10-02T10:00:08.790Z,99938.38
2022-10-02T10:02:39.029Z,99945.90
2022-10-02T10:05:40.468Z,99946.39
2022-10-02T10:08:23.388Z,99944.53
2022-10-02T10:10:50.947Z,99944.07
2022-10-02T10:13:44.926Z,99941.59
2022-10-02T10:16:30.881Z,99938.16
2022-10-02T10:19:07.532Z,99944.30
2022-10-02T10:21:53.968Z,99949.18
2022-10-02T10:24:54.936Z,99947.38
2022-10-02T10:28:23.398Z,99946.88
2022-10-02T10:31:13.017Z,99945.88
2022-10-02T10:33:49.457Z,99945.54
2022-10-02T10:36:40.367Z,99945.01
2022-10-02T10:39:14.063Z,99947.03
2022-10-02T10:42:19.934Z,99944.10
2022-10-02T10:45:06.127Z,99941.16
2022-10-02T10:47:40.030Z,99942.30
2022-10-02T10:50:38.509Z,99933.14
2022-10-02T10:53:15.277Z,99932.19
2022-10-02T10:56:08.335Z,99934.96
2022-10-02T10:59:00.305Z,99934.83
2022-10-02T11:01:58.799Z,99935.01
2022-10-02T11:04:43.820Z,99938.05
2022-10-02T11:07:20.435Z,99934.11
2022-10-02T11:10:07.857Z,99928.77
2022-10-02T11:13:18.482Z,99931.98
2022-10-02T11:16:06.720Z,99927.55
2022-10-02T11:19:03.155Z,99927.98
2022-10-02T11:21:40.156Z,99920.56
2022-10-02T11:24:36.572Z,99923.71
2022-10-02T11:27:49.100Z,99925.20
2022-10-02T11:30:44.387Z,99924.91
2022-10-02T11:33:38.482Z,99929.23
2022-10-02T11:36:30.200Z,99925.40
2022-10-02T11:39:36.363Z,99925.20
2022-10-02T11:42:21.842Z,99927.35
2022-10-02T11:45:09.256Z,99927.58
2022-10-02T11:48:24.527Z,99932.36
2022-10-02T11:50:52.197Z,99927.25
2022-10-02T11:53:46.022Z,99923.41
2022-10-02T11:56:26.005Z,99923.97
2022-10-02T11:59:23.295Z,99927.70
2022-10-02T12:02:06.973Z,99923.82
2022-10-02T12:05:06.118Z,99927.67
2022-10-02T12:07:50.291Z,99925.79
2022-10-02T12:10:33.599Z,99923.79
2022-10-02T12:13:16.539Z,99920.02
2022-10-02T12:16:38.121Z,99914.20
2022-10-02T12:20:04.158Z,99913.25
2022-10-02T12:23:15.751Z,99913.31
2022-10-02T12:26:12.922Z,99911.00
2022-10-02T12:29:05.855Z,99908.73
2022-10-02T12:32:08.205Z,99906.84
2022-10-02T12:34:50.189Z,99911.36
2022-10-02T12:37:42.829Z,99918.55
2022-10-02T12:40:33.580Z,99922.43
2022-10-02T12:43:46.361Z,99919.10
2022-10-02T12:46:22.656Z,99918.52
2022-10-02T12:49:00.341Z,99915.92
2022-10-02T12:51:55.149Z,99913.20
2022-10-02T12:54:53.861Z,99915.20
2022-10-02T12:57:53.543Z,99907.64
2022-10-02T13:00:25.408Z,99907.13
2022-10-02T13:03:11.766Z,99904.70
2022-10-02T13:06:10.908Z,99903.95
2022-10-02T13:08:52.407Z,99896.65
2022-10-02T13:11:38.135Z,99899.04
2022-10-02T13:14:27.809Z,99892.62
2022-10-02T13:17:23.896Z,99893.88
2022-10-02T13:20:28.199Z,99892.02
2022-10-02T13:23:20.592Z,99894.94
2022-10-02T13:26:13.928Z,99891.74
2022-10-02T13:29:04.666Z,99890.59
2022-10-02T13:31:54.202Z,99888.72
2022-10-02T13:34:38.478Z,99884.33
2022-10-02T13:37:55.571Z,99886.96
2022-10-02T13:40:31.816Z,99890.27
2022-10-02T13:43:37.047Z,99890.84
2022-10-02T13:46:33.586Z,99888.50
2022-10-02T13:49:40.190Z,99883.44
2022-10-02T13:52:28.094Z,99886.83
2022-10-02T13:55:26.319Z,99883.23
2022-10-02T13:58:28.108Z,99886.90
2022-10-02T14:01:26.753Z,99884.04
2022-10-02T14:04:00.323Z,99882.66
2022-10-02T14:06:44.573Z,99884.40
2022-10-02T14:09:26.007Z,99883.57
2022-10-02T14:12:09.199Z,99881.35
2022-10-02T14:15:08.192Z,99875.48
2022-10-02T14:17:48.545Z,99872.54
2022-10-02T14:20:33.594Z,99874.20
2022-10-02T14:23:18.690Z,99876.33
2022-10-02T14:26:13.048Z,99875.86
2022-10-02T14:28:59.407Z,99869.17
2022-10-02T14:31:45.856Z,99862.45
2022-10-02T14:34:49.691Z,99862.59
2022-10-02T14:37:20.363Z,99865.11
2022-10-02T14:39:49.884Z,99861.30
2022-10-02T14:42:56.580Z,99866.32
2022-10-02T14:45:42.375Z,99862.88
2022-10-02T14:48:10.742Z,99858.80
2022-10-02T14:50:58.789Z,99860.45
2022-10-02T14:53:47.774Z,99858.16
2022-10-02T14:56:39.447Z,99858.01
2022-10-02T14:59:27.500Z,99862.61
2022-10-02T15:02:22.409Z,99860.81
2022-10-02T15:05:07.171Z,99856.99
2022-10-02T15:07:38.834Z,99859.20
2022-10-02T15:10:16.437Z,99859.06
2022-10-02T15:13:05.927Z,99858.27
2022-10-02T15:15:46.989Z,99859.92
2022-10-02T15:18:55.178Z,99862.75
2022-10-02T15:21:38.403Z,99861.98
2022-10-02T15:24:46.298Z,99865.15
2022-10-02T15:27:23.579Z,99866.99
2022-10-02T15:30:09.780Z,99867.44
2022-10-02T15:33:15.017Z,99863.44
2022-10-02T15:36:03.883Z,99867.35
2022-10-02T15:38:37.370Z,99870.05
2022-10-02T15:41:26.960Z,99869.64
2022-10-02T15:44:08.557Z,99867.98
2022-10-02T15:46:45.718Z,99869.11
2022-10-02T15:49:45.051Z,99870.91
2022-10-02T15:52:27.942Z,99873.41
2022-10-02T15:55:19.578Z,99868.86
2022-10-02T15:58:26.338Z,99871.01
2022-10-02T16:01:01.146Z,99868.23
2022-10-02T16:03:49.173Z,99865.40
2022-10-02T16:06:23.013Z,99864.18
2022-10-02T16:09:31.955Z,99864.98
2022-10-02T16:12:55.294Z,99866.30
2022-10-02T16:15:35.566Z,99869.53
2022-10-02T16:18:33.840Z,99871.83
2022-10-02T16:21:13.790Z,99875.02
2022-10-02T16:24:23.101Z,99875.11
2022-10-02T16:27:11.265Z,99874.36
2022-10-02T16:29:59.899Z,99870.85
2022-10-02T16:32:43.287Z,99869.91
2022-10-02T16:35:24.422Z,99870.48
2022-10-02T16:38:15.331Z,99872.41
2022-10-02T16:41:17.810Z,99870.61
2022-10-02T16:43:59.102Z,99868.34
2022-10-02T16:47:04.342Z,99870.27
2022-10-02T16:50:09.580Z,99869.33
2022-10-02T16:52:53.986Z,99866.83
2022-10-02T16:55:33.806Z,99870.13
2022-10-02T16:58:27.637Z,99868.30
2022-10-02T17:01:03.810Z,99867.00
2022-10-02T17:04:05.963Z,99868.39
2022-10-02T17:06:45.404Z,99864.17
2022-10-02T17:09:22.961Z,99866.92
2022-10-02T17:12:20.331Z,99868.12
2022-10-02T17:15:03.379Z,99868.83
2022-10-02T17:17:56.298Z,99867.33
2022-10-02T17:20:29.624Z,99865.83
2022-10-02T17:23:12.448Z,99868.23
2022-10-02T17:25:48.377Z,99868.77
2022-10-02T17:28:46.236Z,99867.44
2022-10-02T17:31:22.893Z,99870.36
2022-10-02T17:33:59.328Z,99867.84
2022-10-02T17:36:45.108Z,99862.39
2022-10-02T17:39:32.524Z,99861.71
2022-10-02T17:42:30.435Z,99862.58
2022-10-02T17:45:35.885Z,99859.53
2022-10-02T17:48:26.732Z,99861.23
2022-10-02T17:51:23.319Z,99862.77
2022-10-02T17:54:36.090Z,99862.61
2022-10-02T17:57:16.531Z,99864.48
2022-10-02T18:00:07.387Z,99861.95
2022-10-02T18:02:53.097Z,99857.35
2022-10-02T18:05:26.433Z,99860.07
2022-10-02T18:08:06.813Z,99855.82
2022-10-02T18:10:46.630Z,99854.46
2022-10-02T18:13:31.733Z,99853.80
2022-10-02T18:16:18.796Z,99853.10
2022-10-02T18:19:24.065Z,99851.26
2022-10-02T18:22:29.511Z,99848.71
2022-10-02T18:25:03.121Z,99847.02
2022-10-02T18:27:37.739Z,99848.23
2022-10-02T18:30:08.945Z,99850.61
2022-10-02T18:33:01.716Z,99847.05
2022-10-02T18:35:47.285Z,99845.48
2022-10-02T18:38:30.313Z,99845.95
2022-10-02T18:41:27.272Z,99846.44
2022-10-02T18:44:03.182Z,99846.55
2022-10-02T18:46:49.462Z,99849.08
2022-10-02T18:49:17.035Z,99852.60
2022-10-02T18:52:03.043Z,99850.86
2022-10-02T18:54:48.787Z,99851.48
2022-10-02T18:57:55.899Z,99852.48
2022-10-02T19:00:30.574Z,99849.03
2022-10-02T19:03:16.590Z,99847.95
2022-10-02T19:05:58.980Z,99851.17
2022-10-02T19:08:50.989Z,99849.10
2022-10-02T19:11:19.147Z,99851.29
2022-10-02T19:13:49.047Z,99855.88
2022-10-02T19:16:24.456Z,99858.58
2022-10-02T19:19:24.196Z,99861.98
2022-10-02T19:21:59.142Z,99862.49
2022-10-02T19:24:33.144Z,99861.46
2022-10-02T19:27:08.242Z,99862.30
2022-10-02T19:29:42.939Z,99863.66
2022-10-02T19:32:16.624Z,99862.64
2022-10-02T19:34:48.898Z,99864.52
2022-10-02T19:37:20.030Z,99862.80
2022-10-02T19:39:56.063Z,99859.05
2022-10-02T19:42:45.086Z,99858.04
2022-10-02T19:45:34.448Z,99859.90
2022-10-02T19:48:06.064Z,99865.18
2022-10-02T19:50:41.195Z,99863.98
2022-10-02T19:53:36.344Z,99863.13
2022-10-02T19:56:17.168Z,99869.58
2022-10-02T19:58:50.671Z,99874.19
2022-10-02T20:01:23.392Z,99874.69
2022-10-02T20:04:03.651Z,99874.16
2022-10-02T20:06:37.792Z,99875.20
2022-10-02T20:09:20.103Z,99870.77
2022-10-02T20:12:04.349Z,99871.44
2022-10-02T20:14:48.393Z,99870.60
2022-10-02T20:17:17.897Z,99867.19
2022-10-02T20:20:02.862Z,99863.45
2022-10-02T20:22:39.172Z,99866.19
2022-10-02T20:25:29.136Z,99864.67
2022-10-02T20:28:04.099Z,99868.08
2022-10-02T20:30:41.741Z,99868.76
2022-10-02T20:33:26.399Z,99867.41
2022-10-02T20:36:14.109Z,99866.88
2022-10-02T20:38:47.495Z,99867.38
2022-10-02T20:41:35.320Z,99868.41
2022-10-02T20:44:04.623Z,99865.34
2022-10-02T20:46:47.882Z,99868.23
2022-10-02T20:49:44.067Z,99868.58
2022-10-02T20:52:14.484Z,99865.69
2022-10-02T20:55:07.025Z,99862.45
2022-10-02T20:58:00.162Z,99867.56
2022-10-02T21:00:43.155Z,99864.33
2022-10-02T21:03:25.255Z,99866.89
2022-10-02T21:06:26.476Z,99862.30
2022-10-02T21:09:23.656Z,99859.74
2022-10-02T21:12:10.769Z,99859.27
2022-10-02T21:14:54.718Z,99861.86
2022-10-02T21:17:54.937Z,99866.13
2022-10-02T21:20:55.679Z,99863.78
2022-10-02T21:23:32.348Z,99865.33
2022-10-02T21:26:05.845Z,99860.08
2022-10-02T21:29:07.994Z,99863.51
2022-10-02T21:32:07.832Z,99858.77
2022-10-02T21:34:53.843Z,99856.77
2022-10-02T21:37:22.413Z,99853.27
2022-10-02T21:40:19.980Z,99851.58
2022-10-02T21:43:37.801Z,99854.15
2022-10-02T21:46:42.225Z,99854.20
2022-10-02T21:49:15.824Z,99855.58
2022-10-02T21:52:21.065Z,99856.96
2022-10-02T21:54:58.123Z,99858.02
2022-10-02T21:57:51.850Z,99860.23
2022-10-02T22:00:26.685Z,99857.52
2022-10-02T22:03:10.300Z,99856.67
2022-10-02T22:06:02.489Z,99855.52
2022-10-02T22:08:55.065Z,99857.07
2022-10-02T22:11:34.733Z,99860.16
2022-10-02T22:14:27.363Z,99857.45
2022-10-02T22:17:04.941Z,99860.19
2022-10-02T22:19:58.799Z,99858.50
2022-10-02T22:22:41.658Z,99858.19
2022-10-02T22:25:28.548Z,99855.97
2022-10-02T22:28:02.432Z,99858.19
2022-10-02T22:30:37.690Z,99855.48
2022-10-02T22:33:15.384Z,99859.23
2022-10-02T22:36:27.897Z,99858.73
2022-10-02T22:39:28.532Z,99861.81
2022-10-02T22:42:11.045Z,99857.23
2022-10-02T22:45:04.867Z,99862.34
2022-10-02T22:47:39.949Z,99859.63
2022-10-02T22:50:24.829Z,99862.52
2022-10-02T22:53:14.797Z,99865.24
2022-10-02T22:55:53.928Z,99865.42
2022-10-02T22:58:42.071Z,99863.38
2022-10-02T23:01:46.364Z,99859.47
2022-10-02T23:04:37.721Z,99858.95
2022-10-02T23:07:20.008Z,99850.46
2022-10-02T23:10:02.619Z,99851.30
2022-10-02T23:12:51.068Z,99845.02
2022-10-02T23:15:27.436Z,99849.79
2022-10-02T23:17:59.596Z,99851.31
2022-10-02T23:20:36.618Z,99849.79
2022-10-02T23:23:17.984Z,99851.14
2022-10-02T23:26:06.822Z,99851.32
2022-10-02T23:28:47.894Z,99851.33
2022-10-02T23:31:30.452Z,99850.83
2022-10-02T23:34:19.041Z,99854.90
2022-10-02T23:37:07.194Z,99859.82
2022-10-02T23:39:56.869Z,99858.80
2022-10-02T23:42:41.336Z,99861.02
2022-10-02T23:45:21.292Z,99860.48
2022-10-02T23:47:58.457Z,99862.88
2022-10-02T23:50:53.153Z,99864.73
2022-10-02T23:53:40.607Z,99867.63
2022-10-02T23:56:28.504Z,99867.96
2022-10-02T23:59:25.005Z,99865.92
